createdAt,value
2022-08-28T04:45:23.126Z,100994.16
2022-08-28T04:50:25.634Z,100997.41
2022-08-28T04:55:52.787Z,101005.09
2022-08-28T05:00:51.485Z,101004.16
2022-08-28T05:05:54.302Z,101009.34
2022-08-28T05:10:58.006Z,101005.13
2022-08-28T05:16:04.089Z,101019.75
2022-08-28T05:21:14.555Z,101009.34
2022-08-28T05:26:19.838Z,101020.63
2022-08-28T05:31:23.951Z,101018.06
2022-08-28T05:36:32.587Z,101018.03
2022-08-28T05:41:36.412Z,101019.16
2022-08-28T05:46:41.425Z,101031.56
2022-08-28T05:51:44.532Z,101026.66
2022-08-28T05:56:47.303Z,101024.31
2022-08-28T06:01:49.998Z,101031.31
2022-08-28T06:06:52.561Z,101022.59
2022-08-28T06:11:56.800Z,101029.69
2022-08-28T06:17:00.029Z,101015.75
2022-08-28T06:22:07.240Z,101030.47
2022-08-28T06:27:09.994Z,101044.06
2022-08-28T06:32:12.286Z,101043.28
2022-08-28T06:37:14.588Z,101045.56
2022-08-28T06:42:16.882Z,101040.78
2022-08-28T06:47:19.228Z,101048.28
2022-08-28T06:52:21.519Z,101056.63
2022-08-28T06:57:25.776Z,101059.72
2022-08-28T07:02:28.348Z,101066.25
2022-08-28T07:07:32.479Z,101069.03
2022-08-28T07:12:35.668Z,101075.56
2022-08-28T07:17:38.284Z,101074.84
2022-08-28T07:22:43.822Z,101077.88
2022-08-28T07:27:46.046Z,101073.75
2022-08-28T07:32:49.803Z,101085.59
2022-08-28T07:37:52.111Z,101086.78
2022-08-28T07:43:12.619Z,101099.38
2022-08-28T07:48:15.245Z,101106.75
2022-08-28T07:53:18.153Z,101108.13
2022-08-28T07:58:21.381Z,101112.31
2022-08-28T08:03:23.760Z,101109.19
2022-08-28T08:08:26.663Z,101112.59
2022-08-28T08:13:30.270Z,101117.09
2022-08-28T08:18:33.519Z,101119.44
2022-08-28T08:23:37.210Z,101134.09
2022-08-28T08:28:42.425Z,101126.66
2022-08-28T08:33:50.848Z,101132.31
2022-08-28T08:38:59.311Z,101131.38
2022-08-28T08:44:08.988Z,101135.47
2022-08-28T08:49:17.374Z,101136.09
2022-08-28T08:54:21.447Z,101141.97
2022-08-28T08:59:30.264Z,101147.66
2022-08-28T09:04:46.388Z,101138.84
2022-08-28T09:09:52.823Z,101154.19
2022-08-28T09:15:09.800Z,101145.50
2022-08-28T09:20:14.970Z,101149.38
2022-08-28T09:25:45.128Z,101143.78
2022-08-28T09:31:02.006Z,101143.50
2022-08-28T09:36:23.330Z,101153.69
2022-08-28T09:41:44.229Z,101150.97
2022-08-28T09:46:51.394Z,101154.16
2022-08-28T09:51:54.410Z,101151.47
2022-08-28T09:56:56.974Z,101152.63
2022-08-28T10:02:24.047Z,101164.13
2022-08-28T10:08:06.650Z,101162.28
2022-08-28T10:13:14.807Z,101161.75
2022-08-28T10:18:46.232Z,101153.97
2022-08-28T10:24:09.910Z,101168.44
2022-08-28T10:29:18.010Z,101156.09
2022-08-28T10:34:47.587Z,101167.22
2022-08-28T10:39:55.424Z,101177.06
2022-08-28T10:45:16.038Z,101168.13
2022-08-28T10:50:25.379Z,101172.66
2022-08-28T10:55:43.761Z,101179.69
2022-08-28T11:00:47.212Z,101177.09
2022-08-28T11:05:57.803Z,101176.88
2022-08-28T11:11:03.038Z,101193.56
2022-08-28T11:16:35.418Z,101186.47
2022-08-28T11:22:05.490Z,101189.00
2022-08-28T11:27:25.545Z,101198.31
2022-08-28T11:32:51.527Z,101202.78
2022-08-28T11:37:55.126Z,101205.25
2022-08-28T11:43:14.169Z,101216.22
2022-08-28T11:48:33.862Z,101205.53
2022-08-28T11:53:48.036Z,101213.75
2022-08-28T11:58:56.379Z,101202.13
2022-08-28T12:04:14.756Z,101223.25
2022-08-28T12:09:25.859Z,101211.25
2022-08-28T12:14:28.322Z,101208.56
2022-08-28T12:20:01.107Z,101200.69
2022-08-28T12:25:06.256Z,101193.63
2022-08-28T12:30:08.833Z,101188.03
2022-08-28T12:35:17.120Z,101201.06
2022-08-28T12:40:50.114Z,101191.22
2022-08-28T12:45:56.767Z,101188.78
2022-08-28T12:51:05.789Z,101212.16
2022-08-28T12:56:10.589Z,101201.72
2022-08-28T13:01:30.799Z,101200.13
2022-08-28T13:06:37.292Z,101186.03
2022-08-28T13:11:45.304Z,101189.28
2022-08-28T13:16:48.028Z,101182.19
2022-08-28T13:22:32.053Z,101180.81
2022-08-28T13:27:35.937Z,101185.75
2022-08-28T13:32:56.177Z,101179.94
2022-08-28T13:38:04.049Z,101185.75
2022-08-28T13:43:11.112Z,101190.78
2022-08-28T13:48:17.639Z,101189.78
2022-08-28T13:53:20.500Z,101188.06
2022-08-28T13:58:23.360Z,101187.38
2022-08-28T14:03:38.575Z,101192.75
2022-08-28T14:08:43.300Z,101197.84
2022-08-28T14:13:46.891Z,101198.03
2022-08-28T14:18:59.485Z,101196.09
2022-08-28T14:24:02.791Z,101191.63
2022-08-28T14:29:07.665Z,101192.13
2022-08-28T14:34:12.685Z,101196.31
2022-08-28T14:39:14.934Z,101190.22
2022-08-28T14:44:18.507Z,101184.97
2022-08-28T14:49:22.219Z,101190.41
2022-08-28T14:54:25.589Z,101190.03
2022-08-28T14:59:30.406Z,101192.69
2022-08-28T15:04:35.344Z,101183.31
2022-08-28T15:09:39.959Z,101186.00
2022-08-28T15:14:50.328Z,101186.97
2022-08-28T15:20:00.462Z,101179.94
2022-08-28T15:25:03.836Z,101182.63
2022-08-28T15:30:06.849Z,101183.41
2022-08-28T15:35:09.481Z,101185.97
2022-08-28T15:40:30.358Z,101177.97
2022-08-28T15:45:36.537Z,101175.22
2022-08-28T15:50:40.717Z,101178.56
2022-08-28T15:55:43.911Z,101181.84
2022-08-28T16:00:46.333Z,101185.38
2022-08-28T16:05:48.799Z,101192.44
2022-08-28T16:10:52.317Z,101188.09
2022-08-28T16:15:55.316Z,101191.66
2022-08-28T16:21:01.476Z,101193.09
2022-08-28T16:26:07.951Z,101192.81
2022-08-28T16:31:19.677Z,101183.97
2022-08-28T16:36:25.173Z,101191.91
2022-08-28T16:41:28.073Z,101187.38
2022-08-28T16:46:30.670Z,101179.34
2022-08-28T16:51:33.012Z,101192.22
2022-08-28T16:56:35.615Z,101185.16
2022-08-28T17:01:40.748Z,101184.88
2022-08-28T17:06:45.391Z,101192.31
2022-08-28T17:11:52.165Z,101188.50
2022-08-28T17:16:54.860Z,101196.06
2022-08-28T17:22:15.785Z,101196.50
2022-08-28T17:27:22.623Z,101199.31
2022-08-28T17:32:25.247Z,101191.03
2022-08-28T17:37:27.832Z,101198.53
2022-08-28T17:42:30.214Z,101205.81
2022-08-28T17:47:32.501Z,101206.56
2022-08-28T17:52:35.040Z,101218.25
2022-08-28T17:57:37.423Z,101208.88
2022-08-28T18:02:40.024Z,101219.50
2022-08-28T18:07:42.510Z,101226.03
2022-08-28T18:12:44.838Z,101235.06
2022-08-28T18:17:50.472Z,101243.69
2022-08-28T18:22:53.336Z,101244.72
2022-08-28T18:27:56.095Z,101248.44
2022-08-28T18:32:58.641Z,101247.06
2022-08-28T18:38:01.642Z,101255.97
2022-08-28T18:43:04.610Z,101255.31
2022-08-28T18:48:08.049Z,101262.91
2022-08-28T18:53:10.333Z,101262.06
2022-08-28T18:58:14.022Z,101261.63
2022-08-28T19:03:17.803Z,101268.03
2022-08-28T19:08:20.163Z,101266.38
2022-08-28T19:13:22.606Z,101268.06
2022-08-28T19:18:24.902Z,101283.81
2022-08-28T19:23:27.236Z,101285.78
2022-08-28T19:28:29.707Z,101289.50
2022-08-28T19:33:32.352Z,101289.31
2022-08-28T19:38:34.767Z,101293.63
2022-08-28T19:43:42.733Z,101298.09
2022-08-28T19:48:47.871Z,101305.00
2022-08-28T19:53:56.874Z,101311.47
2022-08-28T19:59:02.305Z,101323.25
2022-08-28T20:04:07.740Z,101317.38
2022-08-28T20:09:12.887Z,101313.47
2022-08-28T20:14:18.238Z,101324.09
2022-08-28T20:19:21.513Z,101317.00
2022-08-28T20:24:24.203Z,101317.22
2022-08-28T20:29:26.505Z,101323.13
2022-08-28T20:34:28.969Z,101318.84
2022-08-28T20:39:31.250Z,101325.28
2022-08-28T20:44:33.505Z,101322.88
2022-08-28T20:49:39.533Z,101331.31
2022-08-28T20:54:42.025Z,101322.34
2022-08-28T20:59:46.129Z,101326.31
2022-08-28T21:04:49.149Z,101323.78
2022-08-28T21:10:05.318Z,101315.66
2022-08-28T21:15:12.534Z,101326.63
2022-08-28T21:20:16.117Z,101319.44
2022-08-28T21:25:20.925Z,101330.66
2022-08-28T21:30:23.432Z,101331.25
2022-08-28T21:35:31.731Z,101339.19
2022-08-28T21:40:35.601Z,101338.91
2022-08-28T21:45:38.010Z,101331.66
2022-08-28T21:50:42.872Z,101333.13
2022-08-28T21:55:53.026Z,101339.56
